sensor_id;sensor_type;location;lat;lon;timestamp;P1;durP1;ratioP1;P2;durP2;ratioP2
35324;SDS011;35135;47.510;19.036;2022-11-11T00:01:31;14.20;;;12.52;;
35324;SDS011;35135;47.510;19.036;2022-11-11T00:03:57;14.35;;;12.73;;
35324;SDS011;35135;47.510;19.036;2022-11-11T00:06:22;14.23;;;12.73;;
35324;SDS011;35135;47.510;19.036;2022-11-11T00:08:48;17.25;;;14.00;;
35324;SDS011;35135;47.510;19.036;2022-11-11T00:11:14;14.02;;;12.55;;
35324;SDS011;35135;47.510;19.036;2022-11-11T00:13:41;15.02;;;12.77;;
35324;SDS011;35135;47.510;19.036;2022-11-11T00:18:41;14.40;;;12.27;;
35324;SDS011;35135;47.510;19.036;2022-11-11T00:21:26;14.48;;;12.50;;
35324;SDS011;35135;47.510;19.036;2022-11-11T00:24:27;14.00;;;12.00;;
35324;SDS011;35135;47.510;19.036;2022-11-11T00:27:12;13.05;;;11.60;;
35324;SDS011;35135;47.510;19.036;2022-11-11T00:29:39;12.77;;;11.45;;
35324;SDS011;35135;47.510;19.036;2022-11-11T00:32:06;12.57;;;11.27;;
35324;SDS011;35135;47.510;19.036;2022-11-11T00:34:48;13.63;;;12.23;;
35324;SDS011;35135;47.510;19.036;2022-11-11T00:37:33;12.50;;;11.15;;
35324;SDS011;35135;47.510;19.036;2022-11-11T00:39:59;12.05;;;10.85;;
35324;SDS011;35135;47.510;19.036;2022-11-11T00:42:25;13.20;;;11.27;;
35324;SDS011;35135;47.510;19.036;2022-11-11T00:44:51;12.95;;;11.57;;
35324;SDS011;35135;47.510;19.036;2022-11-11T00:47:17;12.85;;;10.98;;
35324;SDS011;35135;47.510;19.036;2022-11-11T00:50:01;12.20;;;10.88;;
35324;SDS011;35135;47.510;19.036;2022-11-11T00:52:47;12.38;;;11.18;;
35324;SDS011;35135;47.510;19.036;2022-11-11T00:55:13;10.88;;;9.77;;
35324;SDS011;35135;47.510;19.036;2022-11-11T00:57:39;12.50;;;10.55;;
35324;SDS011;35135;47.510;19.036;2022-11-11T01:00:05;11.45;;;10.25;;
35324;SDS011;35135;47.510;19.036;2022-11-11T01:02:31;11.60;;;10.38;;
35324;SDS011;35135;47.510;19.036;2022-11-11T01:04:57;12.05;;;10.40;;
35324;SDS011;35135;47.510;19.036;2022-11-11T01:07:23;12.68;;;10.23;;
35324;SDS011;35135;47.510;19.036;2022-11-11T01:09:49;12.00;;;10.57;;
35324;SDS011;35135;47.510;19.036;2022-11-11T01:12:16;11.18;;;9.98;;
35324;SDS011;35135;47.510;19.036;2022-11-11T01:14:42;12.68;;;10.10;;
35324;SDS011;35135;47.510;19.036;2022-11-11T01:17:07;10.90;;;9.80;;
35324;SDS011;35135;47.510;19.036;2022-11-11T01:19:34;11.93;;;10.00;;
35324;SDS011;35135;47.510;19.036;2022-11-11T01:22:00;10.40;;;9.40;;
35324;SDS011;35135;47.510;19.036;2022-11-11T01:24:25;10.57;;;9.48;;
35324;SDS011;35135;47.510;19.036;2022-11-11T01:26:51;11.52;;;10.32;;
35324;SDS011;35135;47.510;19.036;2022-11-11T01:29:17;10.50;;;9.23;;
35324;SDS011;35135;47.510;19.036;2022-11-11T01:31:42;11.20;;;10.10;;
35324;SDS011;35135;47.510;19.036;2022-11-11T01:34:08;9.25;;;8.27;;
35324;SDS011;35135;47.510;19.036;2022-11-11T01:36:34;10.07;;;9.00;;
35324;SDS011;35135;47.510;19.036;2022-11-11T01:38:59;9.90;;;8.90;;
35324;SDS011;35135;47.510;19.036;2022-11-11T01:41:26;13.23;;;9.80;;
35324;SDS011;35135;47.510;19.036;2022-11-11T01:43:57;10.48;;;9.38;;
35324;SDS011;35135;47.510;19.036;2022-11-11T01:46:27;10.50;;;9.40;;
35324;SDS011;35135;47.510;19.036;2022-11-11T01:57:07;9.88;;;8.88;;
35324;SDS011;35135;47.510;19.036;2022-11-11T01:59:49;9.52;;;8.52;;
35324;SDS011;35135;47.510;19.036;2022-11-11T02:02:32;9.57;;;8.25;;
35324;SDS011;35135;47.510;19.036;2022-11-11T02:05:05;8.98;;;8.07;;
35324;SDS011;35135;47.510;19.036;2022-11-11T02:07:53;10.10;;;8.73;;
35324;SDS011;35135;47.510;19.036;2022-11-11T02:10:21;9.15;;;8.25;;
35324;SDS011;35135;47.510;19.036;2022-11-11T02:12:49;10.40;;;8.13;;
35324;SDS011;35135;47.510;19.036;2022-11-11T02:15:37;8.75;;;7.85;;
35324;SDS011;35135;47.510;19.036;2022-11-11T02:18:03;9.23;;;8.30;;
35324;SDS011;35135;47.510;19.036;2022-11-11T02:20:29;9.60;;;8.60;;
35324;SDS011;35135;47.510;19.036;2022-11-11T02:25:46;8.95;;;8.05;;
35324;SDS011;35135;47.510;19.036;2022-11-11T02:28:13;9.70;;;8.45;;
35324;SDS011;35135;47.510;19.036;2022-11-11T02:30:40;8.45;;;7.55;;
35324;SDS011;35135;47.510;19.036;2022-11-11T02:33:06;8.23;;;7.43;;
35324;SDS011;35135;47.510;19.036;2022-11-11T02:35:45;8.88;;;7.40;;
35324;SDS011;35135;47.510;19.036;2022-11-11T02:38:21;9.88;;;7.93;;
35324;SDS011;35135;47.510;19.036;2022-11-11T02:40:48;8.05;;;7.32;;
35324;SDS011;35135;47.510;19.036;2022-11-11T02:43:32;8.82;;;7.93;;
35324;SDS011;35135;47.510;19.036;2022-11-11T02:45:59;8.70;;;7.65;;
35324;SDS011;35135;47.510;19.036;2022-11-11T02:48:26;8.65;;;7.63;;
35324;SDS011;35135;47.510;19.036;2022-11-11T02:50:52;8.48;;;7.57;;
35324;SDS011;35135;47.510;19.036;2022-11-11T02:53:18;8.43;;;7.60;;
35324;SDS011;35135;47.510;19.036;2022-11-11T02:55:44;8.90;;;7.85;;
35324;SDS011;35135;47.510;19.036;2022-11-11T02:58:10;8.38;;;7.57;;
35324;SDS011;35135;47.510;19.036;2022-11-11T03:00:37;8.07;;;7.18;;
35324;SDS011;35135;47.510;19.036;2022-11-11T03:03:03;7.65;;;6.93;;
35324;SDS011;35135;47.510;19.036;2022-11-11T03:05:28;8.85;;;7.40;;
35324;SDS011;35135;47.510;19.036;2022-11-11T03:07:54;8.13;;;7.20;;
35324;SDS011;35135;47.510;19.036;2022-11-11T03:10:20;7.75;;;6.97;;
35324;SDS011;35135;47.510;19.036;2022-11-11T03:12:45;8.55;;;7.68;;
35324;SDS011;35135;47.510;19.036;2022-11-11T03:15:11;8.45;;;7.03;;
35324;SDS011;35135;47.510;19.036;2022-11-11T03:17:37;7.85;;;7.05;;
35324;SDS011;35135;47.510;19.036;2022-11-11T03:23:03;7.68;;;6.90;;
35324;SDS011;35135;47.510;19.036;2022-11-11T03:25:30;7.15;;;6.45;;
35324;SDS011;35135;47.510;19.036;2022-11-11T03:28:02;8.05;;;7.22;;
35324;SDS011;35135;47.510;19.036;2022-11-11T03:30:39;7.72;;;6.93;;
35324;SDS011;35135;47.510;19.036;2022-11-11T03:33:09;7.20;;;5.93;;
35324;SDS011;35135;47.510;19.036;2022-11-11T03:35:35;7.47;;;6.78;;
35324;SDS011;35135;47.510;19.036;2022-11-11T03:38:02;6.70;;;6.00;;
35324;SDS011;35135;47.510;19.036;2022-11-11T03:40:47;6.90;;;6.03;;
35324;SDS011;35135;47.510;19.036;2022-11-11T03:43:18;8.45;;;6.82;;
35324;SDS011;35135;47.510;19.036;2022-11-11T03:45:45;7.53;;;6.72;;
35324;SDS011;35135;47.510;19.036;2022-11-11T03:48:11;6.88;;;6.18;;
35324;SDS011;35135;47.510;19.036;2022-11-11T03:50:37;6.85;;;6.22;;
35324;SDS011;35135;47.510;19.036;2022-11-11T03:53:02;7.05;;;6.35;;
35324;SDS011;35135;47.510;19.036;2022-11-11T03:55:28;7.70;;;6.07;;
35324;SDS011;35135;47.510;19.036;2022-11-11T03:57:54;7.13;;;6.43;;
35324;SDS011;35135;47.510;19.036;2022-11-11T04:00:21;6.57;;;5.93;;
35324;SDS011;35135;47.510;19.036;2022-11-11T04:02:49;7.00;;;6.13;;
35324;SDS011;35135;47.510;19.036;2022-11-11T04:05:34;7.88;;;6.82;;
35324;SDS011;35135;47.510;19.036;2022-11-11T04:08:18;7.63;;;6.20;;
35324;SDS011;35135;47.510;19.036;2022-11-11T04:11:10;6.90;;;6.30;;
35324;SDS011;35135;47.510;19.036;2022-11-11T04:13:39;7.25;;;6.53;;
35324;SDS011;35135;47.510;19.036;2022-11-11T04:16:25;7.80;;;6.50;;
35324;SDS011;35135;47.510;19.036;2022-11-11T04:18:50;7.05;;;6.35;;
35324;SDS011;35135;47.510;19.036;2022-11-11T04:21:35;6.85;;;6.05;;
35324;SDS011;35135;47.510;19.036;2022-11-11T04:24:16;6.68;;;5.97;;
35324;SDS011;35135;47.510;19.036;2022-11-11T04:27:03;6.88;;;6.18;;
35324;SDS011;35135;47.510;19.036;2022-11-11T04:29:40;7.03;;;6.28;;
35324;SDS011;35135;47.510;19.036;2022-11-11T04:32:09;6.85;;;6.05;;
35324;SDS011;35135;47.510;19.036;2022-11-11T04:34:59;7.22;;;6.35;;
35324;SDS011;35135;47.510;19.036;2022-11-11T04:37:26;7.18;;;6.03;;
35324;SDS011;35135;47.510;19.036;2022-11-11T04:39:54;6.38;;;5.78;;
35324;SDS011;35135;47.510;19.036;2022-11-11T04:42:39;7.15;;;6.40;;
35324;SDS011;35135;47.510;19.036;2022-11-11T04:45:04;7.65;;;6.53;;
35324;SDS011;35135;47.510;19.036;2022-11-11T04:50:36;7.95;;;6.43;;
35324;SDS011;35135;47.510;19.036;2022-11-11T04:53:07;6.93;;;6.22;;
35324;SDS011;35135;47.510;19.036;2022-11-11T04:58:24;6.88;;;5.95;;
35324;SDS011;35135;47.510;19.036;2022-11-11T05:00:51;6.72;;;6.13;;
35324;SDS011;35135;47.510;19.036;2022-11-11T05:03:17;7.55;;;6.70;;
35324;SDS011;35135;47.510;19.036;2022-11-11T05:08:36;6.82;;;6.13;;
35324;SDS011;35135;47.510;19.036;2022-11-11T05:13:49;6.63;;;5.47;;
35324;SDS011;35135;47.510;19.036;2022-11-11T05:16:36;6.40;;;5.72;;
35324;SDS011;35135;47.510;19.036;2022-11-11T05:19:22;6.65;;;6.03;;
35324;SDS011;35135;47.510;19.036;2022-11-11T05:24:41;7.47;;;5.93;;
35324;SDS011;35135;47.510;19.036;2022-11-11T05:27:25;7.20;;;6.13;;
35324;SDS011;35135;47.510;19.036;2022-11-11T05:29:51;7.93;;;6.40;;
35324;SDS011;35135;47.510;19.036;2022-11-11T05:32:17;6.40;;;5.80;;
35324;SDS011;35135;47.510;19.036;2022-11-11T05:34:44;6.28;;;5.68;;
35324;SDS011;35135;47.510;19.036;2022-11-11T05:37:10;7.13;;;6.18;;
35324;SDS011;35135;47.510;19.036;2022-11-11T05:39:35;6.72;;;6.00;;
35324;SDS011;35135;47.510;19.036;2022-11-11T05:42:01;6.55;;;5.95;;
35324;SDS011;35135;47.510;19.036;2022-11-11T05:44:27;6.70;;;6.00;;
35324;SDS011;35135;47.510;19.036;2022-11-11T05:46:52;7.15;;;6.30;;
35324;SDS011;35135;47.510;19.036;2022-11-11T05:49:18;7.10;;;5.85;;
35324;SDS011;35135;47.510;19.036;2022-11-11T05:51:44;6.78;;;6.07;;
35324;SDS011;35135;47.510;19.036;2022-11-11T05:54:10;7.07;;;6.38;;
35324;SDS011;35135;47.510;19.036;2022-11-11T05:56:37;6.75;;;6.15;;
35324;SDS011;35135;47.510;19.036;2022-11-11T05:59:03;7.38;;;6.20;;
35324;SDS011;35135;47.510;19.036;2022-11-11T06:01:29;6.47;;;5.88;;
35324;SDS011;35135;47.510;19.036;2022-11-11T06:03:55;6.30;;;5.70;;
35324;SDS011;35135;47.510;19.036;2022-11-11T06:06:21;7.22;;;5.90;;
35324;SDS011;35135;47.510;19.036;2022-11-11T06:08:47;6.78;;;5.85;;
35324;SDS011;35135;47.510;19.036;2022-11-11T06:11:12;6.80;;;6.03;;
35324;SDS011;35135;47.510;19.036;2022-11-11T06:13:38;6.72;;;6.07;;
35324;SDS011;35135;47.510;19.036;2022-11-11T06:16:04;7.78;;;6.90;;
35324;SDS011;35135;47.510;19.036;2022-11-11T06:18:30;7.20;;;6.38;;
35324;SDS011;35135;47.510;19.036;2022-11-11T06:20:56;7.25;;;5.97;;
35324;SDS011;35135;47.510;19.036;2022-11-11T06:23:23;7.05;;;6.07;;
35324;SDS011;35135;47.510;19.036;2022-11-11T06:25:50;8.10;;;6.25;;
35324;SDS011;35135;47.510;19.036;2022-11-11T06:28:34;6.72;;;6.03;;
35324;SDS011;35135;47.510;19.036;2022-11-11T06:31:00;6.93;;;6.28;;
35324;SDS011;35135;47.510;19.036;2022-11-11T06:33:26;6.82;;;6.07;;
35324;SDS011;35135;47.510;19.036;2022-11-11T06:35:52;6.43;;;5.82;;
35324;SDS011;35135;47.510;19.036;2022-11-11T06:38:18;7.50;;;6.50;;
35324;SDS011;35135;47.510;19.036;2022-11-11T06:40:44;7.80;;;6.65;;
35324;SDS011;35135;47.510;19.036;2022-11-11T06:43:10;7.45;;;6.28;;
35324;SDS011;35135;47.510;19.036;2022-11-11T06:45:36;7.00;;;6.30;;
35324;SDS011;35135;47.510;19.036;2022-11-11T06:48:03;9.85;;;6.97;;
35324;SDS011;35135;47.510;19.036;2022-11-11T06:50:30;8.00;;;5.97;;
35324;SDS011;35135;47.510;19.036;2022-11-11T06:53:02;9.07;;;6.20;;
35324;SDS011;35135;47.510;19.036;2022-11-11T06:55:28;8.50;;;6.45;;
35324;SDS011;35135;47.510;19.036;2022-11-11T06:57:54;9.50;;;7.00;;
35324;SDS011;35135;47.510;19.036;2022-11-11T07:00:20;11.13;;;6.75;;
35324;SDS011;35135;47.510;19.036;2022-11-11T07:02:45;9.73;;;6.70;;
35324;SDS011;35135;47.510;19.036;2022-11-11T07:05:11;11.00;;;7.28;;
35324;SDS011;35135;47.510;19.036;2022-11-11T07:07:37;10.98;;;6.57;;
35324;SDS011;35135;47.510;19.036;2022-11-11T07:10:03;13.55;;;6.82;;
35324;SDS011;35135;47.510;19.036;2022-11-11T07:12:31;14.25;;;7.30;;
35324;SDS011;35135;47.510;19.036;2022-11-11T07:14:57;11.48;;;6.90;;
35324;SDS011;35135;47.510;19.036;2022-11-11T07:17:22;10.95;;;7.13;;
35324;SDS011;35135;47.510;19.036;2022-11-11T07:19:48;10.43;;;7.47;;
35324;SDS011;35135;47.510;19.036;2022-11-11T07:22:13;10.43;;;7.22;;
35324;SDS011;35135;47.510;19.036;2022-11-11T07:24:39;7.78;;;6.35;;
35324;SDS011;35135;47.510;19.036;2022-11-11T07:27:05;9.00;;;6.85;;
35324;SDS011;35135;47.510;19.036;2022-11-11T07:29:30;10.88;;;7.15;;
35324;SDS011;35135;47.510;19.036;2022-11-11T07:31:56;14.35;;;7.65;;
35324;SDS011;35135;47.510;19.036;2022-11-11T07:34:21;12.20;;;6.95;;
35324;SDS011;35135;47.510;19.036;2022-11-11T07:36:47;13.85;;;7.53;;
35324;SDS011;35135;47.510;19.036;2022-11-11T07:39:13;16.13;;;7.68;;
35324;SDS011;35135;47.510;19.036;2022-11-11T07:41:38;12.70;;;7.82;;
35324;SDS011;35135;47.510;19.036;2022-11-11T07:44:04;9.63;;;7.03;;
35324;SDS011;35135;47.510;19.036;2022-11-11T07:46:29;15.75;;;8.07;;
35324;SDS011;35135;47.510;19.036;2022-11-11T07:48:55;10.07;;;7.50;;
35324;SDS011;35135;47.510;19.036;2022-11-11T07:51:21;7.63;;;6.82;;
35324;SDS011;35135;47.510;19.036;2022-11-11T07:53:46;10.30;;;7.53;;
35324;SDS011;35135;47.510;19.036;2022-11-11T07:56:12;17.33;;;7.68;;
35324;SDS011;35135;47.510;19.036;2022-11-11T07:58:38;8.73;;;7.03;;
35324;SDS011;35135;47.510;19.036;2022-11-11T08:01:03;10.60;;;6.82;;
35324;SDS011;35135;47.510;19.036;2022-11-11T08:03:29;8.25;;;6.78;;
35324;SDS011;35135;47.510;19.036;2022-11-11T08:05:55;11.40;;;7.13;;
35324;SDS011;35135;47.510;19.036;2022-11-11T08:08:20;7.75;;;6.53;;
35324;SDS011;35135;47.510;19.036;2022-11-11T08:10:52;9.02;;;6.95;;
35324;SDS011;35135;47.510;19.036;2022-11-11T08:13:18;7.82;;;5.88;;
35324;SDS011;35135;47.510;19.036;2022-11-11T08:16:03;9.25;;;6.57;;
35324;SDS011;35135;47.510;19.036;2022-11-11T08:18:31;8.07;;;6.43;;
35324;SDS011;35135;47.510;19.036;2022-11-11T08:20:57;9.05;;;6.75;;
35324;SDS011;35135;47.510;19.036;2022-11-11T08:23:22;11.43;;;7.28;;
35324;SDS011;35135;47.510;19.036;2022-11-11T08:25:57;7.93;;;6.57;;
35324;SDS011;35135;47.510;19.036;2022-11-11T08:28:26;8.82;;;6.28;;
35324;SDS011;35135;47.510;19.036;2022-11-11T08:30:53;8.82;;;6.80;;
35324;SDS011;35135;47.510;19.036;2022-11-11T08:33:19;7.57;;;6.22;;
35324;SDS011;35135;47.510;19.036;2022-11-11T08:35:45;7.78;;;6.50;;
35324;SDS011;35135;47.510;19.036;2022-11-11T08:38:11;8.23;;;6.30;;
35324;SDS011;35135;47.510;19.036;2022-11-11T08:40:37;8.63;;;6.45;;
35324;SDS011;35135;47.510;19.036;2022-11-11T08:43:03;8.20;;;6.07;;
35324;SDS011;35135;47.510;19.036;2022-11-11T08:45:29;9.02;;;6.38;;
35324;SDS011;35135;47.510;19.036;2022-11-11T08:47:54;8.25;;;6.30;;
35324;SDS011;35135;47.510;19.036;2022-11-11T08:50:20;7.40;;;6.15;;
35324;SDS011;35135;47.510;19.036;2022-11-11T08:52:49;7.45;;;5.97;;
35324;SDS011;35135;47.510;19.036;2022-11-11T08:55:16;6.72;;;6.05;;
35324;SDS011;35135;47.510;19.036;2022-11-11T08:57:42;7.30;;;6.18;;
35324;SDS011;35135;47.510;19.036;2022-11-11T09:00:08;8.52;;;6.60;;
35324;SDS011;35135;47.510;19.036;2022-11-11T09:02:35;8.10;;;6.47;;
35324;SDS011;35135;47.510;19.036;2022-11-11T09:05:01;7.78;;;6.03;;
35324;SDS011;35135;47.510;19.036;2022-11-11T09:07:26;7.95;;;6.40;;
35324;SDS011;35135;47.510;19.036;2022-11-11T09:09:52;7.57;;;5.97;;
35324;SDS011;35135;47.510;19.036;2022-11-11T09:12:18;9.15;;;7.15;;
35324;SDS011;35135;47.510;19.036;2022-11-11T09:14:43;7.22;;;6.07;;
35324;SDS011;35135;47.510;19.036;2022-11-11T09:17:09;7.45;;;6.60;;
35324;SDS011;35135;47.510;19.036;2022-11-11T09:19:35;7.07;;;5.85;;
35324;SDS011;35135;47.510;19.036;2022-11-11T09:22:00;9.65;;;6.32;;
35324;SDS011;35135;47.510;19.036;2022-11-11T09:24:26;6.20;;;5.60;;
35324;SDS011;35135;47.510;19.036;2022-11-11T09:26:52;7.30;;;6.07;;
35324;SDS011;35135;47.510;19.036;2022-11-11T09:29:18;7.03;;;6.30;;
35324;SDS011;35135;47.510;19.036;2022-11-11T09:31:44;10.13;;;6.32;;
35324;SDS011;35135;47.510;19.036;2022-11-11T09:34:10;7.60;;;6.10;;
35324;SDS011;35135;47.510;19.036;2022-11-11T09:36:35;7.60;;;6.30;;
35324;SDS011;35135;47.510;19.036;2022-11-11T09:39:01;7.47;;;6.38;;
35324;SDS011;35135;47.510;19.036;2022-11-11T09:41:36;8.57;;;6.68;;
35324;SDS011;35135;47.510;19.036;2022-11-11T09:47:02;7.75;;;6.57;;
35324;SDS011;35135;47.510;19.036;2022-11-11T09:55:41;8.82;;;6.32;;
35324;SDS011;35135;47.510;19.036;2022-11-11T10:00:36;7.03;;;6.07;;
35324;SDS011;35135;47.510;19.036;2022-11-11T10:03:22;7.72;;;5.95;;
35324;SDS011;35135;47.510;19.036;2022-11-11T10:05:52;7.82;;;6.63;;
35324;SDS011;35135;47.510;19.036;2022-11-11T10:14:08;7.70;;;6.30;;
35324;SDS011;35135;47.510;19.036;2022-11-11T10:21:43;8.02;;;5.88;;
35324;SDS011;35135;47.510;19.036;2022-11-11T10:24:15;8.35;;;6.35;;
35324;SDS011;35135;47.510;19.036;2022-11-11T10:26:50;7.53;;;5.70;;
35324;SDS011;35135;47.510;19.036;2022-11-11T10:29:19;6.68;;;5.97;;
35324;SDS011;35135;47.510;19.036;2022-11-11T10:31:51;6.63;;;5.93;;
35324;SDS011;35135;47.510;19.036;2022-11-11T10:34:27;8.05;;;6.18;;
35324;SDS011;35135;47.510;19.036;2022-11-11T10:39:26;7.18;;;5.65;;
35324;SDS011;35135;47.510;19.036;2022-11-11T10:41:58;8.82;;;6.30;;
35324;SDS011;35135;47.510;19.036;2022-11-11T10:44:27;7.97;;;6.20;;
35324;SDS011;35135;47.510;19.036;2022-11-11T10:49:47;8.27;;;6.10;;
35324;SDS011;35135;47.510;19.036;2022-11-11T10:52:25;7.20;;;6.18;;
35324;SDS011;35135;47.510;19.036;2022-11-11T10:57:28;12.10;;;6.18;;
35324;SDS011;35135;47.510;19.036;2022-11-11T11:00:10;8.32;;;6.22;;
35324;SDS011;35135;47.510;19.036;2022-11-11T11:07:45;6.95;;;6.00;;
35324;SDS011;35135;47.510;19.036;2022-11-11T11:10:18;7.57;;;5.95;;
35324;SDS011;35135;47.510;19.036;2022-11-11T11:15:34;7.65;;;5.43;;
35324;SDS011;35135;47.510;19.036;2022-11-11T11:18:09;8.17;;;6.30;;
35324;SDS011;35135;47.510;19.036;2022-11-11T11:23:03;7.18;;;5.68;;
35324;SDS011;35135;47.510;19.036;2022-11-11T11:25:31;6.25;;;5.60;;
35324;SDS011;35135;47.510;19.036;2022-11-11T11:30:33;6.25;;;5.65;;
35324;SDS011;35135;47.510;19.036;2022-11-11T11:33:06;8.50;;;6.25;;
35324;SDS011;35135;47.510;19.036;2022-11-11T11:35:36;5.93;;;5.32;;
35324;SDS011;35135;47.510;19.036;2022-11-11T11:38:08;7.68;;;5.50;;
35324;SDS011;35135;47.510;19.036;2022-11-11T11:45:58;7.95;;;6.15;;
35324;SDS011;35135;47.510;19.036;2022-11-11T11:48:29;6.53;;;5.65;;
35324;SDS011;35135;47.510;19.036;2022-11-11T11:51:19;7.25;;;5.78;;
35324;SDS011;35135;47.510;19.036;2022-11-11T11:56:49;6.05;;;5.45;;
35324;SDS011;35135;47.510;19.036;2022-11-11T11:59:25;7.53;;;5.43;;
35324;SDS011;35135;47.510;19.036;2022-11-11T12:11:05;6.00;;;5.40;;
35324;SDS011;35135;47.510;19.036;2022-11-11T12:31:32;6.38;;;5.68;;
35324;SDS011;35135;47.510;19.036;2022-11-11T12:34:23;6.45;;;5.53;;
35324;SDS011;35135;47.510;19.036;2022-11-11T12:48:37;5.88;;;5.28;;
35324;SDS011;35135;47.510;19.036;2022-11-11T12:54:27;5.95;;;4.78;;
35324;SDS011;35135;47.510;19.036;2022-11-11T13:05:24;5.45;;;4.85;;
35324;SDS011;35135;47.510;19.036;2022-11-11T13:10:57;5.10;;;4.53;;
35324;SDS011;35135;47.510;19.036;2022-11-11T13:16:02;5.63;;;4.88;;
35324;SDS011;35135;47.510;19.036;2022-11-11T13:21:08;6.22;;;4.65;;
35324;SDS011;35135;47.510;19.036;2022-11-11T13:23:38;5.45;;;4.75;;
35324;SDS011;35135;47.510;19.036;2022-11-11T13:26:04;5.45;;;4.78;;
35324;SDS011;35135;47.510;19.036;2022-11-11T13:28:38;12.60;;;5.15;;
35324;SDS011;35135;47.510;19.036;2022-11-11T13:33:56;5.25;;;4.47;;
35324;SDS011;35135;47.510;19.036;2022-11-11T13:36:27;5.00;;;4.33;;
35324;SDS011;35135;47.510;19.036;2022-11-11T13:38:56;5.38;;;4.50;;
35324;SDS011;35135;47.510;19.036;2022-11-11T13:41:28;4.45;;;3.95;;
35324;SDS011;35135;47.510;19.036;2022-11-11T13:44:03;5.03;;;4.53;;
35324;SDS011;35135;47.510;19.036;2022-11-11T13:46:32;6.63;;;4.35;;
35324;SDS011;35135;47.510;19.036;2022-11-11T13:49:20;4.63;;;4.10;;
35324;SDS011;35135;47.510;19.036;2022-11-11T13:51:56;6.50;;;4.55;;
35324;SDS011;35135;47.510;19.036;2022-11-11T13:54:49;5.25;;;3.85;;
35324;SDS011;35135;47.510;19.036;2022-11-11T13:57:47;4.85;;;4.32;;
35324;SDS011;35135;47.510;19.036;2022-11-11T14:02:40;6.15;;;3.53;;
35324;SDS011;35135;47.510;19.036;2022-11-11T14:18:09;4.90;;;3.67;;
35324;SDS011;35135;47.510;19.036;2022-11-11T14:20:55;8.25;;;4.25;;
35324;SDS011;35135;47.510;19.036;2022-11-11T14:28:40;4.20;;;3.33;;
35324;SDS011;35135;47.510;19.036;2022-11-11T14:41:51;7.25;;;3.53;;
35324;SDS011;35135;47.510;19.036;2022-11-11T14:47:43;3.88;;;3.30;;
35324;SDS011;35135;47.510;19.036;2022-11-11T14:49:56;6.15;;;3.50;;
35324;SDS011;35135;47.510;19.036;2022-11-11T14:52:41;4.50;;;3.22;;
35324;SDS011;35135;47.510;19.036;2022-11-11T14:57:45;4.53;;;3.60;;
35324;SDS011;35135;47.510;19.036;2022-11-11T15:00:24;6.38;;;3.58;;
35324;SDS011;35135;47.510;19.036;2022-11-11T15:02:53;5.20;;;3.47;;
35324;SDS011;35135;47.510;19.036;2022-11-11T15:05:29;4.72;;;3.17;;
35324;SDS011;35135;47.510;19.036;2022-11-11T15:21:33;4.53;;;3.10;;
35324;SDS011;35135;47.510;19.036;2022-11-11T15:30:11;5.35;;;3.45;;
35324;SDS011;35135;47.510;19.036;2022-11-11T15:32:53;4.93;;;3.10;;
35324;SDS011;35135;47.510;19.036;2022-11-11T15:35:41;3.28;;;2.95;;
35324;SDS011;35135;47.510;19.036;2022-11-11T15:38:16;4.18;;;3.60;;
35324;SDS011;35135;47.510;19.036;2022-11-11T15:40:47;5.28;;;2.95;;
35324;SDS011;35135;47.510;19.036;2022-11-11T15:43:16;3.40;;;2.85;;
35324;SDS011;35135;47.510;19.036;2022-11-11T15:45:44;3.70;;;2.80;;
35324;SDS011;35135;47.510;19.036;2022-11-11T15:48:18;4.15;;;3.10;;
35324;SDS011;35135;47.510;19.036;2022-11-11T15:50:54;5.45;;;3.20;;
35324;SDS011;35135;47.510;19.036;2022-11-11T15:53:21;3.47;;;2.70;;
35324;SDS011;35135;47.510;19.036;2022-11-11T15:58:28;9.25;;;4.60;;
35324;SDS011;35135;47.510;19.036;2022-11-11T16:00:56;5.18;;;3.80;;
35324;SDS011;35135;47.510;19.036;2022-11-11T16:05:53;6.80;;;4.28;;
35324;SDS011;35135;47.510;19.036;2022-11-11T16:08:19;7.10;;;4.55;;
35324;SDS011;35135;47.510;19.036;2022-11-11T16:10:46;10.65;;;4.57;;
35324;SDS011;35135;47.510;19.036;2022-11-11T16:13:20;9.02;;;4.57;;
35324;SDS011;35135;47.510;19.036;2022-11-11T16:15:58;7.22;;;4.38;;
35324;SDS011;35135;47.510;19.036;2022-11-11T16:18:33;11.07;;;4.38;;
35324;SDS011;35135;47.510;19.036;2022-11-11T16:23:57;7.00;;;4.97;;
35324;SDS011;35135;47.510;19.036;2022-11-11T16:26:24;8.75;;;4.32;;
35324;SDS011;35135;47.510;19.036;2022-11-11T16:28:51;12.63;;;4.35;;
35324;SDS011;35135;47.510;19.036;2022-11-11T16:37:07;7.68;;;4.10;;
35324;SDS011;35135;47.510;19.036;2022-11-11T16:39:35;9.40;;;4.57;;
35324;SDS011;35135;47.510;19.036;2022-11-11T16:42:02;13.95;;;4.90;;
35324;SDS011;35135;47.510;19.036;2022-11-11T16:47:06;9.10;;;4.32;;
35324;SDS011;35135;47.510;19.036;2022-11-11T16:50:06;8.10;;;4.25;;
35324;SDS011;35135;47.510;19.036;2022-11-11T16:52:40;9.93;;;4.32;;
35324;SDS011;35135;47.510;19.036;2022-11-11T16:55:07;8.43;;;4.57;;
35324;SDS011;35135;47.510;19.036;2022-11-11T16:57:35;8.63;;;4.32;;
35324;SDS011;35135;47.510;19.036;2022-11-11T17:00:07;8.65;;;4.43;;
35324;SDS011;35135;47.510;19.036;2022-11-11T17:02:38;7.97;;;4.45;;
35324;SDS011;35135;47.510;19.036;2022-11-11T17:05:04;9.55;;;4.35;;
35324;SDS011;35135;47.510;19.036;2022-11-11T17:07:37;7.55;;;3.53;;
35324;SDS011;35135;47.510;19.036;2022-11-11T17:12:37;11.50;;;3.97;;
35324;SDS011;35135;47.510;19.036;2022-11-11T17:15:04;9.00;;;4.00;;
35324;SDS011;35135;47.510;19.036;2022-11-11T17:17:32;9.75;;;4.68;;
35324;SDS011;35135;47.510;19.036;2022-11-11T17:20:00;6.43;;;3.80;;
35324;SDS011;35135;47.510;19.036;2022-11-11T17:22:28;9.25;;;4.47;;
35324;SDS011;35135;47.510;19.036;2022-11-11T17:24:55;8.98;;;4.00;;
35324;SDS011;35135;47.510;19.036;2022-11-11T17:27:20;6.40;;;3.25;;
35324;SDS011;35135;47.510;19.036;2022-11-11T17:29:46;8.13;;;3.47;;
35324;SDS011;35135;47.510;19.036;2022-11-11T17:32:12;9.18;;;3.75;;
35324;SDS011;35135;47.510;19.036;2022-11-11T17:34:38;6.63;;;3.97;;
35324;SDS011;35135;47.510;19.036;2022-11-11T17:37:03;7.80;;;3.35;;
35324;SDS011;35135;47.510;19.036;2022-11-11T17:39:29;7.60;;;3.78;;
35324;SDS011;35135;47.510;19.036;2022-11-11T17:41:55;11.18;;;3.63;;
35324;SDS011;35135;47.510;19.036;2022-11-11T17:44:21;7.40;;;3.90;;
35324;SDS011;35135;47.510;19.036;2022-11-11T17:46:47;12.13;;;3.85;;
35324;SDS011;35135;47.510;19.036;2022-11-11T17:49:12;7.35;;;3.55;;
35324;SDS011;35135;47.510;19.036;2022-11-11T17:51:39;7.75;;;3.50;;
35324;SDS011;35135;47.510;19.036;2022-11-11T17:54:06;5.70;;;3.72;;
35324;SDS011;35135;47.510;19.036;2022-11-11T17:56:33;6.47;;;3.30;;
35324;SDS011;35135;47.510;19.036;2022-11-11T17:58:59;5.63;;;3.30;;
35324;SDS011;35135;47.510;19.036;2022-11-11T18:01:25;7.57;;;3.55;;
35324;SDS011;35135;47.510;19.036;2022-11-11T18:03:54;7.25;;;3.42;;
35324;SDS011;35135;47.510;19.036;2022-11-11T18:06:20;9.75;;;3.38;;
35324;SDS011;35135;47.510;19.036;2022-11-11T18:08:46;7.95;;;3.55;;
35324;SDS011;35135;47.510;19.036;2022-11-11T18:11:12;5.65;;;3.67;;
35324;SDS011;35135;47.510;19.036;2022-11-11T18:13:37;7.50;;;3.35;;
35324;SDS011;35135;47.510;19.036;2022-11-11T18:16:03;7.65;;;3.55;;
35324;SDS011;35135;47.510;19.036;2022-11-11T18:18:29;9.82;;;3.50;;
35324;SDS011;35135;47.510;19.036;2022-11-11T18:21:05;6.15;;;3.30;;
35324;SDS011;35135;47.510;19.036;2022-11-11T18:23:31;5.28;;;3.22;;
35324;SDS011;35135;47.510;19.036;2022-11-11T18:25:58;6.82;;;3.30;;